createdAt,value
2022-11-14T00:00:01.020Z,35.75
2022-11-14T00:00:26.836Z,32.78
2022-11-14T00:00:49.555Z,33.28
2022-11-14T00:01:13.069Z,33.17
2022-11-14T00:01:35.840Z,34.38
2022-11-14T00:01:58.560Z,34.28
2022-11-14T00:02:21.617Z,33.50
2022-11-14T00:02:44.436Z,34.28
2022-11-14T00:03:08.067Z,33.90
2022-11-14T00:03:31.060Z,34.78
2022-11-14T00:03:53.761Z,34.00
2022-11-14T00:04:16.602Z,33.85
2022-11-14T00:04:39.334Z,34.13
2022-11-14T00:05:02.005Z,36.08
2022-11-14T00:05:24.650Z,34.92
2022-11-14T00:05:47.448Z,35.00
2022-11-14T00:06:10.291Z,36.22
2022-11-14T00:06:32.964Z,36.95
2022-11-14T00:06:55.694Z,34.83
2022-11-14T00:07:18.503Z,33.53
2022-11-14T00:07:41.315Z,34.97
2022-11-14T00:08:04.319Z,35.05
2022-11-14T00:08:29.205Z,36.83
2022-11-14T00:08:52.434Z,34.35
2022-11-14T00:09:15.145Z,32.50
2022-11-14T00:09:38.829Z,32.58
2022-11-14T00:10:01.756Z,33.28
2022-11-14T00:10:24.443Z,31.67
2022-11-14T00:10:47.843Z,33.53
2022-11-14T00:11:10.579Z,31.10
2022-11-14T00:11:33.282Z,31.77
2022-11-14T00:11:56.158Z,32.45
2022-11-14T00:12:18.904Z,31.58
2022-11-14T00:12:41.761Z,32.38
2022-11-14T00:13:04.544Z,33.55
2022-11-14T00:13:27.239Z,32.72
2022-11-14T00:13:49.958Z,34.97
2022-11-14T00:14:12.739Z,30.95
2022-11-14T00:14:35.386Z,31.15
2022-11-14T00:14:58.075Z,31.90
2022-11-14T00:15:20.859Z,34.15
2022-11-14T00:15:43.724Z,30.58
2022-11-14T00:16:06.659Z,30.02
2022-11-14T00:16:29.414Z,31.45
2022-11-14T00:16:52.084Z,31.67
2022-11-14T00:17:14.890Z,31.73
2022-11-14T00:17:37.783Z,33.70
2022-11-14T00:18:00.510Z,32.42
2022-11-14T00:18:23.315Z,33.20
2022-11-14T00:18:46.068Z,33.17
2022-11-14T00:19:08.909Z,32.15
2022-11-14T00:19:31.730Z,31.20
2022-11-14T00:19:54.403Z,34.10
2022-11-14T00:20:17.298Z,32.45
2022-11-14T00:20:40.159Z,31.45
2022-11-14T00:21:03.209Z,33.03
2022-11-14T00:21:25.919Z,32.45
2022-11-14T00:21:48.664Z,32.45
2022-11-14T00:22:12.448Z,31.58
2022-11-14T00:22:35.124Z,33.38
2022-11-14T00:22:57.827Z,33.55
2022-11-14T00:23:20.583Z,33.58
2022-11-14T00:23:44.763Z,33.15
2022-11-14T00:24:07.579Z,31.73
2022-11-14T00:24:30.303Z,32.58
2022-11-14T00:24:52.978Z,32.25
2022-11-14T00:25:15.944Z,31.38
2022-11-14T00:25:38.728Z,35.10
2022-11-14T00:26:01.459Z,34.83
2022-11-14T00:26:24.116Z,33.38
2022-11-14T00:26:47.819Z,33.55
2022-11-14T00:27:10.596Z,30.60
2022-11-14T00:27:33.334Z,31.40
2022-11-14T00:27:57.938Z,31.42
2022-11-14T00:28:20.640Z,30.88
2022-11-14T00:28:43.416Z,30.40
2022-11-14T00:29:06.089Z,29.70
2022-11-14T00:29:28.799Z,32.25
2022-11-14T00:29:51.574Z,31.45
2022-11-14T00:30:14.883Z,30.52
2022-11-14T00:30:37.620Z,29.88
2022-11-14T00:31:00.323Z,31.67
2022-11-14T00:31:23.056Z,34.58
2022-11-14T00:31:45.693Z,34.15
2022-11-14T00:32:08.494Z,32.00
2022-11-14T00:32:31.853Z,30.98
2022-11-14T00:32:54.549Z,31.73
2022-11-14T00:33:20.539Z,33.63
2022-11-14T00:33:43.599Z,31.02
2022-11-14T00:34:06.293Z,30.30
2022-11-14T00:34:29.023Z,28.33
2022-11-14T00:34:52.749Z,29.10
2022-11-14T00:35:15.679Z,30.23
2022-11-14T00:35:39.128Z,30.58
2022-11-14T00:36:01.798Z,32.72
2022-11-14T00:36:24.519Z,33.53
2022-11-14T00:36:47.221Z,31.77
2022-11-14T00:37:09.957Z,32.90
2022-11-14T00:37:32.924Z,30.77
2022-11-14T00:37:55.671Z,29.73
2022-11-14T00:38:18.402Z,29.08
2022-11-14T00:38:41.134Z,28.80
2022-11-14T00:39:05.363Z,27.30
2022-11-14T00:39:28.184Z,29.02
2022-11-14T00:39:50.918Z,29.42
2022-11-14T00:40:14.957Z,27.42
2022-11-14T00:40:37.620Z,26.55
2022-11-14T00:41:00.317Z,27.13
2022-11-14T00:41:23.043Z,28.15
2022-11-14T00:41:45.762Z,27.88
2022-11-14T00:42:08.968Z,27.15
2022-11-14T00:42:31.843Z,25.80
2022-11-14T00:42:54.603Z,25.80
2022-11-14T00:43:17.295Z,26.05
2022-11-14T00:43:42.283Z,24.55
2022-11-14T00:44:05.226Z,25.55
2022-11-14T00:44:27.908Z,25.58
2022-11-14T00:44:50.654Z,25.98
2022-11-14T00:45:15.849Z,25.88
2022-11-14T00:45:38.758Z,26.05
2022-11-14T00:46:01.493Z,25.90
2022-11-14T00:46:24.163Z,26.63
2022-11-14T00:46:46.897Z,28.35
2022-11-14T00:47:09.594Z,26.42
2022-11-14T00:47:32.297Z,24.85
2022-11-14T00:47:55.124Z,25.90
2022-11-14T00:48:17.837Z,24.30
2022-11-14T00:48:40.507Z,25.17
2022-11-14T00:49:03.222Z,26.10
2022-11-14T00:49:25.873Z,26.90
2022-11-14T00:49:48.663Z,25.38
2022-11-14T00:50:11.488Z,25.38
2022-11-14T00:50:34.132Z,26.05
2022-11-14T00:50:56.851Z,26.48
2022-11-14T00:51:19.528Z,26.27
2022-11-14T00:51:42.249Z,26.60
2022-11-14T00:52:05.398Z,27.58
2022-11-14T00:52:28.066Z,25.95
2022-11-14T00:52:50.732Z,25.30
2022-11-14T00:53:13.667Z,24.73
2022-11-14T00:53:36.418Z,25.20
2022-11-14T00:53:59.057Z,25.00
2022-11-14T00:54:23.280Z,26.67
2022-11-14T00:54:46.020Z,25.17
2022-11-14T00:55:09.867Z,25.45
2022-11-14T00:55:32.642Z,26.73
2022-11-14T00:55:55.362Z,27.17
2022-11-14T00:56:18.078Z,25.15
2022-11-14T00:56:40.847Z,25.42
2022-11-14T00:57:03.654Z,26.05
2022-11-14T00:57:26.408Z,26.25
2022-11-14T00:57:49.143Z,26.55
2022-11-14T00:58:14.344Z,26.05
2022-11-14T00:58:37.008Z,26.83
2022-11-14T00:58:59.697Z,24.67
2022-11-14T00:59:22.443Z,25.25
2022-11-14T00:59:45.163Z,25.67
2022-11-14T01:00:09.287Z,26.88
2022-11-14T01:00:32.102Z,26.30
2022-11-14T01:00:54.886Z,26.63
2022-11-14T01:01:17.676Z,26.98
2022-11-14T01:01:40.366Z,25.30
2022-11-14T01:02:03.122Z,25.42
2022-11-14T01:02:25.819Z,26.85
2022-11-14T01:02:48.523Z,25.20
2022-11-14T01:03:11.228Z,27.55
2022-11-14T01:03:33.917Z,25.75
2022-11-14T01:03:56.681Z,26.00
2022-11-14T01:04:19.562Z,26.55
2022-11-14T01:04:42.328Z,25.65
2022-11-14T01:05:06.244Z,25.60
2022-11-14T01:05:28.927Z,25.33
2022-11-14T01:05:51.754Z,24.95
2022-11-14T01:06:15.904Z,25.17
2022-11-14T01:06:38.638Z,26.80
2022-11-14T01:07:01.318Z,25.85
2022-11-14T01:07:24.009Z,25.15
2022-11-14T01:07:46.724Z,26.13
2022-11-14T01:08:09.482Z,27.85
2022-11-14T01:08:32.410Z,25.20
2022-11-14T01:08:55.273Z,25.70
2022-11-14T01:09:18.007Z,25.52
2022-11-14T01:09:42.303Z,26.83
2022-11-14T01:10:06.167Z,26.95
2022-11-14T01:10:29.590Z,25.48
2022-11-14T01:10:52.337Z,24.58
2022-11-14T01:11:18.084Z,26.10
2022-11-14T01:11:40.863Z,25.60
2022-11-14T01:12:03.943Z,26.00
2022-11-14T01:12:26.726Z,25.52
2022-11-14T01:12:49.793Z,25.63
2022-11-14T01:13:13.619Z,25.55
2022-11-14T01:13:36.516Z,25.73
2022-11-14T01:13:59.239Z,25.33
2022-11-14T01:14:21.943Z,24.55
2022-11-14T01:14:44.722Z,24.98
2022-11-14T01:15:09.102Z,25.40
2022-11-14T01:15:31.813Z,27.55
2022-11-14T01:15:55.208Z,27.92
2022-11-14T01:16:18.068Z,25.15
2022-11-14T01:16:40.842Z,24.27
2022-11-14T01:17:03.658Z,25.58
2022-11-14T01:17:28.787Z,25.60
2022-11-14T01:17:51.507Z,26.25
2022-11-14T01:18:18.238Z,27.95
2022-11-14T01:18:41.104Z,23.88
2022-11-14T01:19:04.429Z,25.95
2022-11-14T01:19:27.242Z,25.25
2022-11-14T01:19:49.979Z,25.80
2022-11-14T01:20:13.293Z,25.70
2022-11-14T01:20:38.062Z,25.20
2022-11-14T01:21:00.854Z,26.60
2022-11-14T01:21:23.572Z,26.60
2022-11-14T01:21:46.352Z,24.80
2022-11-14T01:22:09.104Z,28.13
2022-11-14T01:22:31.862Z,24.90
2022-11-14T01:22:54.588Z,25.88
2022-11-14T01:23:17.282Z,28.83
2022-11-14T01:23:40.014Z,27.45
2022-11-14T01:24:02.819Z,26.75
2022-11-14T01:24:28.323Z,26.33
2022-11-14T01:24:52.608Z,25.58
2022-11-14T01:25:15.438Z,25.55
2022-11-14T01:25:38.863Z,24.83
2022-11-14T01:26:04.662Z,26.27
2022-11-14T01:26:27.438Z,27.38
2022-11-14T01:26:50.162Z,24.95
2022-11-14T01:27:12.859Z,24.52
2022-11-14T01:27:35.597Z,24.85
2022-11-14T01:27:58.327Z,25.77
2022-11-14T01:28:21.068Z,25.58
2022-11-14T01:28:43.898Z,25.27
2022-11-14T01:29:09.103Z,25.50
2022-11-14T01:29:31.862Z,25.38
2022-11-14T01:29:54.632Z,24.70
2022-11-14T01:30:17.457Z,24.02
2022-11-14T01:30:40.242Z,25.38
2022-11-14T01:31:13.538Z,28.02
2022-11-14T01:31:36.338Z,25.55
2022-11-14T01:31:59.207Z,26.05
2022-11-14T01:32:21.928Z,26.15
2022-11-14T01:32:44.732Z,26.92
2022-11-14T01:33:09.128Z,25.90
2022-11-14T01:33:31.908Z,26.00
2022-11-14T01:33:54.732Z,25.85
2022-11-14T01:34:17.443Z,25.33
2022-11-14T01:34:40.167Z,26.08
2022-11-14T01:35:06.008Z,25.70
2022-11-14T01:35:28.720Z,24.95
2022-11-14T01:35:51.448Z,24.83
2022-11-14T01:36:14.208Z,25.90
2022-11-14T01:36:36.983Z,27.80
2022-11-14T01:36:59.709Z,27.27
2022-11-14T01:37:22.632Z,26.75
2022-11-14T01:37:45.445Z,26.73
2022-11-14T01:38:11.203Z,26.58
2022-11-14T01:38:34.443Z,28.25
2022-11-14T01:38:57.188Z,26.75
2022-11-14T01:39:19.842Z,27.48
2022-11-14T01:39:42.596Z,29.73
2022-11-14T01:40:08.632Z,30.17
2022-11-14T01:40:31.349Z,32.45
2022-11-14T01:40:54.039Z,32.17
2022-11-14T01:41:16.906Z,30.35
2022-11-14T01:41:39.618Z,30.10
2022-11-14T01:42:02.400Z,31.52
2022-11-14T01:42:27.365Z,30.38
2022-11-14T01:43:27.841Z,30.25
2022-11-14T01:43:50.701Z,31.48
2022-11-14T01:44:14.260Z,31.67
2022-11-14T01:44:45.294Z,31.67
2022-11-14T01:45:47.364Z,33.30
2022-11-14T01:46:12.958Z,34.97
2022-11-14T01:46:36.647Z,34.22
2022-11-14T01:46:59.443Z,34.58
2022-11-14T01:47:23.522Z,36.67
2022-11-14T01:47:46.223Z,35.83
2022-11-14T01:48:10.865Z,32.50
2022-11-14T01:48:38.126Z,32.28
2022-11-14T01:49:02.902Z,33.00
2022-11-14T01:49:27.063Z,34.35
2022-11-14T01:49:52.670Z,33.05
2022-11-14T01:50:15.545Z,32.53
2022-11-14T01:50:38.206Z,32.70
2022-11-14T01:51:02.606Z,32.60
2022-11-14T01:51:27.813Z,35.60
2022-11-14T01:51:51.757Z,34.33
2022-11-14T01:52:16.183Z,31.30
2022-11-14T01:52:41.764Z,31.95
2022-11-14T01:53:04.488Z,32.80
2022-11-14T01:53:27.208Z,31.55
2022-11-14T01:53:52.413Z,31.85
2022-11-14T01:54:18.548Z,34.03
2022-11-14T01:54:43.854Z,32.05
2022-11-14T01:55:09.704Z,31.83
2022-11-14T01:55:32.358Z,31.80
2022-11-14T01:55:55.828Z,32.03
2022-11-14T01:56:21.923Z,32.28
2022-11-14T01:56:48.337Z,32.30
2022-11-14T01:57:11.020Z,32.55
2022-11-14T01:57:35.662Z,35.25
2022-11-14T01:57:58.343Z,34.10
2022-11-14T01:58:21.284Z,33.33
2022-11-14T01:58:48.183Z,33.30
2022-11-14T01:59:12.077Z,32.92
2022-11-14T01:59:36.310Z,33.25
2022-11-14T02:00:01.909Z,33.70
2022-11-14T02:00:24.517Z,31.02
2022-11-14T02:00:47.214Z,30.90
2022-11-14T02:01:09.960Z,30.85
2022-11-14T02:01:34.762Z,30.30
2022-11-14T02:01:58.387Z,32.72
2022-11-14T02:02:22.578Z,32.70
2022-11-14T02:02:45.298Z,33.90
2022-11-14T02:03:08.048Z,32.38
2022-11-14T02:03:30.730Z,31.27
2022-11-14T02:03:56.408Z,33.80
2022-11-14T02:04:20.488Z,32.83
2022-11-14T02:04:45.492Z,33.92
2022-11-14T02:05:09.437Z,34.15
2022-11-14T02:05:32.231Z,31.83
2022-11-14T02:05:54.972Z,30.92
2022-11-14T02:06:21.442Z,32.85
2022-11-14T02:06:44.226Z,32.05
2022-11-14T02:07:07.934Z,31.42
2022-11-14T02:07:31.621Z,32.53
2022-11-14T02:07:54.373Z,31.35
2022-11-14T02:08:17.098Z,32.30
2022-11-14T02:08:39.842Z,31.73
2022-11-14T02:09:05.267Z,32.47
2022-11-14T02:09:28.279Z,32.40
2022-11-14T02:09:50.927Z,32.88
2022-11-14T02:10:18.566Z,33.65
2022-11-14T02:10:41.239Z,32.97
2022-11-14T02:11:04.223Z,33.28
2022-11-14T02:11:29.610Z,31.42
2022-11-14T02:11:52.724Z,31.08
2022-11-14T02:12:17.103Z,31.08
2022-11-14T02:12:39.839Z,31.73
2022-11-14T02:13:02.559Z,30.92
2022-11-14T02:13:25.287Z,34.45
2022-11-14T02:13:48.027Z,34.47
2022-11-14T02:14:10.966Z,31.52
2022-11-14T02:14:36.175Z,33.78
2022-11-14T02:14:59.057Z,30.30
2022-11-14T02:15:21.737Z,31.63
2022-11-14T02:15:44.482Z,31.02
2022-11-14T02:16:07.207Z,33.30
2022-11-14T02:16:29.928Z,31.13
2022-11-14T02:17:14.705Z,31.23
2022-11-14T02:17:35.248Z,31.50
2022-11-14T02:17:57.924Z,29.52
2022-11-14T02:18:20.648Z,29.02
2022-11-14T02:18:43.364Z,29.13
2022-11-14T02:19:06.107Z,29.67
2022-11-14T02:19:41.598Z,31.77
2022-11-14T02:20:21.363Z,33.42
2022-11-14T02:20:44.004Z,30.23
2022-11-14T02:21:07.108Z,29.17
2022-11-14T02:21:29.803Z,31.10
2022-11-14T02:21:52.558Z,30.85
2022-11-14T02:22:15.337Z,31.10
2022-11-14T02:22:38.138Z,31.80
2022-11-14T02:23:00.963Z,31.52
2022-11-14T02:23:27.242Z,31.67
2022-11-14T02:23:50.058Z,31.23
2022-11-14T02:24:13.609Z,30.40
2022-11-14T02:24:37.127Z,31.05
2022-11-14T02:24:59.899Z,32.38
2022-11-14T02:25:22.627Z,31.20
2022-11-14T02:25:45.402Z,30.25
2022-11-14T02:26:08.149Z,29.92
2022-11-14T02:26:35.609Z,34.22
2022-11-14T02:26:59.429Z,32.72
2022-11-14T02:27:22.118Z,32.90
2022-11-14T02:27:44.878Z,31.83
2022-11-14T02:28:08.297Z,32.65
2022-11-14T02:28:32.371Z,33.47
2022-11-14T02:28:57.585Z,33.30
2022-11-14T02:29:23.073Z,33.90
2022-11-14T02:29:45.773Z,31.15
2022-11-14T02:30:11.397Z,32.25
2022-11-14T02:30:34.123Z,31.13
2022-11-14T02:30:56.808Z,31.75
2022-11-14T02:31:19.528Z,33.03
2022-11-14T02:31:42.248Z,32.15
2022-11-14T02:32:10.350Z,31.85
2022-11-14T02:32:56.960Z,31.85
2022-11-14T02:33:16.333Z,31.40
2022-11-14T02:33:39.063Z,29.58
2022-11-14T02:34:01.758Z,31.05
2022-11-14T02:34:24.502Z,31.75
2022-11-14T02:34:47.243Z,31.10
2022-11-14T02:35:11.520Z,30.02
2022-11-14T02:35:34.244Z,31.10
2022-11-14T02:35:57.104Z,34.35
2022-11-14T02:36:19.933Z,30.83
2022-11-14T02:36:42.677Z,29.77
2022-11-14T02:37:05.468Z,30.50
2022-11-14T02:37:28.224Z,32.30
2022-11-14T02:37:50.903Z,30.48
2022-11-14T02:38:13.604Z,30.60
2022-11-14T02:38:36.685Z,29.90
2022-11-14T02:38:59.384Z,31.02
2022-11-14T02:39:22.133Z,30.25
2022-11-14T02:39:44.807Z,32.15
2022-11-14T02:40:09.624Z,32.42
2022-11-14T02:40:32.363Z,30.45
2022-11-14T02:40:55.118Z,31.15
2022-11-14T02:41:17.890Z,34.15
2022-11-14T02:41:43.737Z,34.22
2022-11-14T02:42:06.564Z,30.20
2022-11-14T02:42:29.282Z,29.52
2022-11-14T02:42:52.019Z,31.35
2022-11-14T02:43:14.623Z,33.42
2022-11-14T02:43:37.397Z,30.27
2022-11-14T02:44:00.122Z,31.08
2022-11-14T02:44:22.889Z,30.63
2022-11-14T02:44:45.662Z,31.40
2022-11-14T02:45:09.863Z,32.38
2022-11-14T02:45:32.703Z,31.88
2022-11-14T02:45:55.393Z,31.27
2022-11-14T02:46:18.162Z,33.25
2022-11-14T02:46:40.888Z,30.77
2022-11-14T02:47:03.586Z,30.23
2022-11-14T02:47:26.379Z,31.02
2022-11-14T02:47:49.122Z,31.60
2022-11-14T02:48:11.842Z,29.35
2022-11-14T02:48:34.743Z,29.92
2022-11-14T02:48:57.459Z,32.22
2022-11-14T02:49:20.497Z,30.33
2022-11-14T02:49:43.194Z,31.55
2022-11-14T02:50:06.699Z,30.52
2022-11-14T02:50:30.958Z,31.73
2022-11-14T02:50:53.742Z,30.65
2022-11-14T02:51:16.513Z,29.92
2022-11-14T02:51:42.418Z,30.55
2022-11-14T02:52:05.398Z,29.83
2022-11-14T02:52:28.049Z,32.03
2022-11-14T02:52:50.807Z,29.52
2022-11-14T02:53:13.602Z,32.30
2022-11-14T02:53:36.523Z,32.67
2022-11-14T02:53:59.362Z,29.42
2022-11-14T02:54:22.076Z,31.08
2022-11-14T02:54:44.943Z,31.77
2022-11-14T02:55:08.652Z,32.72
2022-11-14T02:55:31.420Z,30.80
2022-11-14T02:55:54.393Z,31.80
2022-11-14T02:56:17.131Z,33.10
2022-11-14T02:56:40.892Z,33.35
2022-11-14T02:57:03.738Z,34.75
2022-11-14T02:57:26.443Z,32.22
2022-11-14T02:57:49.131Z,35.30
2022-11-14T02:58:11.909Z,33.10
2022-11-14T02:58:35.051Z,32.20
2022-11-14T02:58:57.907Z,32.35
2022-11-14T02:59:20.631Z,33.85
2022-11-14T02:59:43.394Z,34.90
2022-11-14T03:00:11.821Z,33.17
2022-11-14T03:00:53.291Z,33.78
2022-11-14T03:01:21.457Z,33.88
2022-11-14T03:01:44.596Z,32.97
2022-11-14T03:02:07.422Z,32.35
2022-11-14T03:02:30.208Z,30.80
2022-11-14T03:02:53.514Z,29.85
2022-11-14T03:03:16.322Z,32.15
2022-11-14T03:03:39.034Z,31.75
2022-11-14T03:04:01.841Z,30.45
2022-11-14T03:04:26.973Z,29.70
2022-11-14T03:04:50.081Z,32.03
2022-11-14T03:05:12.827Z,30.17
2022-11-14T03:05:37.051Z,30.63
2022-11-14T03:06:00.534Z,31.60
2022-11-14T03:06:23.372Z,30.00
2022-11-14T03:06:46.140Z,32.15
2022-11-14T03:07:08.908Z,30.55
2022-11-14T03:07:31.711Z,31.17
2022-11-14T03:07:55.008Z,29.42
2022-11-14T03:08:17.632Z,31.15
2022-11-14T03:08:40.407Z,31.63
2022-11-14T03:09:03.231Z,29.48
2022-11-14T03:09:26.071Z,29.83
2022-11-14T03:09:48.861Z,29.23
2022-11-14T03:10:11.533Z,29.70
2022-11-14T03:10:34.327Z,31.58
2022-11-14T03:10:57.107Z,31.88
2022-11-14T03:11:19.780Z,31.63
2022-11-14T03:11:42.513Z,29.88
2022-11-14T03:12:05.462Z,30.80
2022-11-14T03:12:28.227Z,30.38
2022-11-14T03:12:54.250Z,31.33
2022-11-14T03:13:16.961Z,30.85
2022-11-14T03:13:43.195Z,33.05
2022-11-14T03:14:05.922Z,29.85
2022-11-14T03:14:31.242Z,28.30
2022-11-14T03:14:54.006Z,29.08
2022-11-14T03:15:16.795Z,28.65
2022-11-14T03:15:39.587Z,27.35
2022-11-14T03:16:06.561Z,25.98
2022-11-14T03:16:29.286Z,29.67
2022-11-14T03:16:52.051Z,28.08
2022-11-14T03:17:14.758Z,28.00
2022-11-14T03:17:37.671Z,27.77
2022-11-14T03:18:00.404Z,28.08
2022-11-14T03:18:23.133Z,29.05
2022-11-14T03:18:45.866Z,28.20
2022-11-14T03:19:08.601Z,28.65
2022-11-14T03:19:31.312Z,28.05
2022-11-14T03:19:54.113Z,28.20
2022-11-14T03:20:19.527Z,28.00
2022-11-14T03:20:43.666Z,29.45
2022-11-14T03:21:07.351Z,29.83
2022-11-14T03:21:30.066Z,29.05
2022-11-14T03:21:52.786Z,26.95
2022-11-14T03:22:17.953Z,30.17
2022-11-14T03:22:40.845Z,29.67
2022-11-14T03:23:06.751Z,29.23
2022-11-14T03:23:29.449Z,27.58
2022-11-14T03:23:52.247Z,29.60
2022-11-14T03:24:17.658Z,29.58
2022-11-14T03:24:40.477Z,29.63
2022-11-14T03:25:03.387Z,30.52
2022-11-14T03:25:26.578Z,30.15
2022-11-14T03:25:51.602Z,29.83
2022-11-14T03:26:14.877Z,30.42
2022-11-14T03:26:37.597Z,31.17
2022-11-14T03:27:00.322Z,33.13
2022-11-14T03:27:23.033Z,30.67
2022-11-14T03:27:45.773Z,30.02
2022-11-14T03:28:08.523Z,31.67
2022-11-14T03:28:31.644Z,32.95
2022-11-14T03:28:55.523Z,31.63
2022-11-14T03:29:18.241Z,30.77
2022-11-14T03:29:40.984Z,32.72
2022-11-14T03:30:06.528Z,33.15
2022-11-14T03:30:29.278Z,30.25
2022-11-14T03:30:52.003Z,29.88
2022-11-14T03:31:15.678Z,30.80
2022-11-14T03:31:38.403Z,30.83
2022-11-14T03:32:01.127Z,30.13
2022-11-14T03:32:23.910Z,31.60
2022-11-14T03:32:46.661Z,32.17
2022-11-14T03:33:09.324Z,30.05
2022-11-14T03:33:34.298Z,30.42
2022-11-14T03:33:56.957Z,29.67
2022-11-14T03:34:19.681Z,30.38
2022-11-14T03:34:42.762Z,29.92
2022-11-14T03:35:09.633Z,30.38
2022-11-14T03:35:32.322Z,29.98
2022-11-14T03:35:56.462Z,31.63
2022-11-14T03:36:19.429Z,29.10
2022-11-14T03:36:42.124Z,29.33
2022-11-14T03:37:04.890Z,29.98
2022-11-14T03:37:27.662Z,34.47
2022-11-14T03:37:55.148Z,31.83
2022-11-14T03:38:19.127Z,28.80
2022-11-14T03:38:43.262Z,35.53
2022-11-14T03:39:06.119Z,33.50
2022-11-14T03:39:28.893Z,33.38
2022-11-14T03:39:51.596Z,32.35
2022-11-14T03:40:14.402Z,31.20
2022-11-14T03:40:40.272Z,33.38
2022-11-14T03:41:02.981Z,31.63
2022-11-14T03:41:25.745Z,29.33
2022-11-14T03:41:48.473Z,32.95
2022-11-14T03:42:11.287Z,31.83
2022-11-14T03:42:34.743Z,35.45
2022-11-14T03:42:57.763Z,36.40
2022-11-14T03:43:21.061Z,34.08
2022-11-14T03:43:43.728Z,30.67
2022-11-14T03:44:06.469Z,32.83
2022-11-14T03:44:29.222Z,33.90
2022-11-14T03:44:52.002Z,32.80
2022-11-14T03:45:14.853Z,30.65
2022-11-14T03:45:37.759Z,31.70
2022-11-14T03:46:00.775Z,32.97
2022-11-14T03:46:23.474Z,33.20
2022-11-14T03:46:46.264Z,33.53
2022-11-14T03:47:08.963Z,32.30
2022-11-14T03:47:31.717Z,33.30
2022-11-14T03:47:55.684Z,31.15
2022-11-14T03:48:19.404Z,33.60
2022-11-14T03:48:42.083Z,31.75
2022-11-14T03:49:07.362Z,32.90
2022-11-14T03:49:30.083Z,30.67
2022-11-14T03:49:52.799Z,30.67
2022-11-14T03:50:15.658Z,30.05
2022-11-14T03:50:38.324Z,29.98
2022-11-14T03:51:02.579Z,29.63
2022-11-14T03:51:25.264Z,29.20
2022-11-14T03:51:51.170Z,29.15
2022-11-14T03:52:13.948Z,30.00
2022-11-14T03:52:36.635Z,31.23
2022-11-14T03:52:59.419Z,30.88
2022-11-14T03:53:22.175Z,29.98
2022-11-14T03:53:44.964Z,27.13
2022-11-14T03:54:07.922Z,29.80
2022-11-14T03:54:30.822Z,29.42
2022-11-14T03:54:53.608Z,29.23
2022-11-14T03:55:16.492Z,28.60
2022-11-14T03:55:40.338Z,28.60
2022-11-14T03:56:03.208Z,28.20
2022-11-14T03:56:25.871Z,28.02
2022-11-14T03:56:50.783Z,29.25
2022-11-14T03:57:13.478Z,29.35
2022-11-14T03:57:36.157Z,30.00
2022-11-14T03:57:58.878Z,31.10
2022-11-14T03:58:21.613Z,30.55
2022-11-14T03:58:44.345Z,28.40
2022-11-14T03:59:08.003Z,27.80
2022-11-14T03:59:30.727Z,26.48
2022-11-14T03:59:53.430Z,27.30
2022-11-14T04:00:16.662Z,27.45
2022-11-14T04:00:40.464Z,29.23
2022-11-14T04:01:03.962Z,27.65
2022-11-14T04:01:28.060Z,27.65
2022-11-14T04:01:50.878Z,28.25
2022-11-14T04:02:13.599Z,29.17
2022-11-14T04:02:36.322Z,28.58
2022-11-14T04:02:59.109Z,29.60
2022-11-14T04:03:21.853Z,31.85
2022-11-14T04:03:44.532Z,28.58
2022-11-14T04:04:07.244Z,27.70
2022-11-14T04:04:32.822Z,29.15
2022-11-14T04:04:55.533Z,30.63
2022-11-14T04:05:18.413Z,29.58
2022-11-14T04:05:43.297Z,29.85
2022-11-14T04:06:07.719Z,28.75
2022-11-14T04:06:33.088Z,29.73
2022-11-14T04:06:55.811Z,29.00
2022-11-14T04:07:18.757Z,29.65
2022-11-14T04:07:41.564Z,28.23
2022-11-14T04:08:05.460Z,28.80
2022-11-14T04:08:28.528Z,28.83
2022-11-14T04:08:52.037Z,30.50
2022-11-14T04:09:14.884Z,29.05
2022-11-14T04:09:37.607Z,28.45
2022-11-14T04:10:00.468Z,28.38
2022-11-14T04:10:23.258Z,28.42
2022-11-14T04:10:47.804Z,28.92
2022-11-14T04:11:10.617Z,30.67
2022-11-14T04:11:33.329Z,28.23
2022-11-14T04:11:55.976Z,29.58
2022-11-14T04:12:19.051Z,29.85
2022-11-14T04:12:41.763Z,29.27
2022-11-14T04:13:04.818Z,30.33
2022-11-14T04:13:27.572Z,27.80
2022-11-14T04:13:50.271Z,28.15
2022-11-14T04:14:13.181Z,29.52
2022-11-14T04:14:35.902Z,28.05
2022-11-14T04:14:59.656Z,27.83
2022-11-14T04:15:22.404Z,28.77
2022-11-14T04:15:45.152Z,31.33
2022-11-14T04:16:08.846Z,27.88
2022-11-14T04:16:31.509Z,27.23
2022-11-14T04:16:56.718Z,29.15
2022-11-14T04:17:19.662Z,28.17
2022-11-14T04:17:42.573Z,28.48
2022-11-14T04:18:05.391Z,29.92
2022-11-14T04:18:28.400Z,27.67
2022-11-14T04:18:51.398Z,28.88
2022-11-14T04:19:14.077Z,28.27
2022-11-14T04:19:36.787Z,28.42
2022-11-14T04:19:59.507Z,27.92
2022-11-14T04:20:22.387Z,26.63
2022-11-14T04:20:45.116Z,29.27
2022-11-14T04:21:09.272Z,30.13
2022-11-14T04:21:32.007Z,28.02
2022-11-14T04:21:54.712Z,29.48
2022-11-14T04:22:19.751Z,30.83
2022-11-14T04:22:42.486Z,26.38
2022-11-14T04:23:05.347Z,27.13
2022-11-14T04:23:28.102Z,26.02
2022-11-14T04:23:52.162Z,27.40
2022-11-14T04:24:15.060Z,25.80
2022-11-14T04:24:37.820Z,26.67
2022-11-14T04:25:00.532Z,27.38
2022-11-14T04:25:23.361Z,26.63
2022-11-14T04:25:46.264Z,27.25
2022-11-14T04:26:08.970Z,27.23
2022-11-14T04:26:31.691Z,27.00
2022-11-14T04:26:54.379Z,28.60
2022-11-14T04:27:17.176Z,28.23
2022-11-14T04:27:40.008Z,28.45
2022-11-14T04:28:02.970Z,27.88
2022-11-14T04:28:25.764Z,28.30
2022-11-14T04:28:50.340Z,29.95
2022-11-14T04:29:13.291Z,29.50
2022-11-14T04:29:36.311Z,28.27
2022-11-14T04:29:58.926Z,28.30
2022-11-14T04:30:21.596Z,29.52
2022-11-14T04:30:46.839Z,30.65
2022-11-14T04:31:09.580Z,27.98
2022-11-14T04:31:32.337Z,28.25
2022-11-14T04:31:55.069Z,28.65
2022-11-14T04:32:17.764Z,30.33
2022-11-14T04:32:40.484Z,31.38
2022-11-14T04:33:03.194Z,32.08
2022-11-14T04:33:26.034Z,33.45
2022-11-14T04:33:51.800Z,29.55
2022-11-14T04:34:14.495Z,31.02
2022-11-14T04:34:41.219Z,29.90
2022-11-14T04:35:04.132Z,30.70
2022-11-14T04:35:26.831Z,30.27
2022-11-14T04:35:49.538Z,32.08
2022-11-14T04:36:13.635Z,30.70
2022-11-14T04:36:36.371Z,28.75
2022-11-14T04:36:59.004Z,29.65
2022-11-14T04:37:22.231Z,30.63
2022-11-14T04:37:44.900Z,28.90
2022-11-14T04:38:07.616Z,30.27
2022-11-14T04:38:30.556Z,29.98
2022-11-14T04:38:53.610Z,27.95
2022-11-14T04:39:16.351Z,29.65
2022-11-14T04:39:39.355Z,28.27
2022-11-14T04:40:03.039Z,27.42
2022-11-14T04:40:25.784Z,29.08
2022-11-14T04:40:51.529Z,29.60
2022-11-14T04:41:14.194Z,28.67
2022-11-14T04:41:36.880Z,26.50
2022-11-14T04:41:59.739Z,28.63
2022-11-14T04:42:22.494Z,29.98
2022-11-14T04:42:45.315Z,30.15
2022-11-14T04:43:08.018Z,29.13
2022-11-14T04:43:30.721Z,29.83
2022-11-14T04:43:53.460Z,27.67
2022-11-14T04:44:16.174Z,27.10
2022-11-14T04:44:38.979Z,28.77
2022-11-14T04:45:01.922Z,29.20
2022-11-14T04:45:24.720Z,29.33
2022-11-14T04:45:47.530Z,27.30
2022-11-14T04:46:10.257Z,26.63
2022-11-14T04:46:33.016Z,30.40
2022-11-14T04:46:56.199Z,28.83
2022-11-14T04:47:18.880Z,30.67
2022-11-14T04:47:42.265Z,30.48
2022-11-14T04:48:05.482Z,27.73
2022-11-14T04:48:28.453Z,28.85
2022-11-14T04:48:51.378Z,31.35
2022-11-14T04:49:14.049Z,30.45
2022-11-14T04:49:36.969Z,30.38
2022-11-14T04:49:59.689Z,30.33
2022-11-14T04:50:23.054Z,30.23
2022-11-14T04:50:46.573Z,32.45
2022-11-14T04:51:09.332Z,33.67
2022-11-14T04:51:33.375Z,33.28
2022-11-14T04:51:56.080Z,33.63
2022-11-14T04:52:18.962Z,35.75
2022-11-14T04:52:42.100Z,34.47
2022-11-14T04:53:04.746Z,32.95
2022-11-14T04:53:27.454Z,33.90
2022-11-14T04:53:50.161Z,34.05
2022-11-14T04:54:12.886Z,34.47
2022-11-14T04:54:35.629Z,34.15
2022-11-14T04:54:58.436Z,32.42
2022-11-14T04:55:21.181Z,35.37
2022-11-14T04:55:45.139Z,34.40
2022-11-14T04:56:08.189Z,34.08
2022-11-14T04:56:30.860Z,36.28
2022-11-14T04:56:53.894Z,35.42
2022-11-14T04:57:17.996Z,36.33
2022-11-14T04:57:40.839Z,36.97
2022-11-14T04:58:03.534Z,36.88
2022-11-14T04:58:29.033Z,35.10
2022-11-14T04:58:52.002Z,33.63
2022-11-14T04:59:20.916Z,37.85
2022-11-14T04:59:43.900Z,34.17
2022-11-14T05:00:08.562Z,32.70
2022-11-14T05:00:31.259Z,32.50
2022-11-14T05:00:54.065Z,32.67
2022-11-14T05:01:16.905Z,33.88
2022-11-14T05:01:39.658Z,31.58
2022-11-14T05:02:02.404Z,34.03